createdAt,value
2023-11-17T00:00:23.161Z,956.12
2023-11-17T00:01:23.085Z,956.18
2023-11-17T00:02:23.639Z,956.22
2023-11-17T00:03:25.141Z,956.24
2023-11-17T00:04:23.124Z,956.27
2023-11-17T00:05:23.056Z,956.35
2023-11-17T00:06:23.021Z,956.41
2023-11-17T00:07:23.080Z,956.47
2023-11-17T00:08:22.997Z,956.46
2023-11-17T00:09:22.985Z,956.52
2023-11-17T00:10:23.045Z,956.58
2023-11-17T00:11:22.970Z,956.63
2023-11-17T00:12:22.954Z,956.70
2023-11-17T00:13:22.952Z,956.74
2023-11-17T00:14:22.947Z,956.80
2023-11-17T00:15:22.938Z,956.86
2023-11-17T00:16:23.015Z,956.88
2023-11-17T00:17:22.903Z,956.92
2023-11-17T00:18:22.879Z,956.96
2023-11-17T00:19:22.937Z,957.03
2023-11-17T00:20:22.869Z,957.10
2023-11-17T00:21:22.878Z,957.13
2023-11-17T00:22:22.864Z,957.16
2023-11-17T00:23:22.844Z,957.22
2023-11-17T00:24:22.815Z,957.21
2023-11-17T00:25:22.875Z,957.32
2023-11-17T00:26:22.819Z,957.35
2023-11-17T00:27:22.798Z,957.42
2023-11-17T00:28:22.805Z,957.45
2023-11-17T00:29:22.787Z,957.54
2023-11-17T00:30:22.767Z,957.60
2023-11-17T00:31:22.819Z,957.63
2023-11-17T00:32:22.778Z,957.77
2023-11-17T00:33:29.319Z,957.76
2023-11-17T00:34:22.859Z,957.82
2023-11-17T00:35:22.763Z,957.85
2023-11-17T00:36:22.699Z,957.95
2023-11-17T00:37:22.809Z,957.92
2023-11-17T00:38:22.702Z,957.95
2023-11-17T00:39:22.700Z,957.99
2023-11-17T00:40:22.714Z,958.04
2023-11-17T00:41:28.313Z,958.08
2023-11-17T00:42:22.660Z,958.12
2023-11-17T00:43:22.696Z,958.14
2023-11-17T00:44:22.683Z,958.20
2023-11-17T00:45:22.650Z,958.24
2023-11-17T00:46:22.668Z,958.29
2023-11-17T00:47:22.678Z,958.30
2023-11-17T00:48:22.614Z,958.30
2023-11-17T00:49:22.634Z,958.32
2023-11-17T00:50:22.570Z,958.29
2023-11-17T00:51:22.559Z,958.35
2023-11-17T00:52:22.578Z,958.40
2023-11-17T00:53:22.587Z,958.44
2023-11-17T00:54:22.538Z,958.54
2023-11-17T00:55:22.542Z,958.55
2023-11-17T00:56:22.547Z,958.61
2023-11-17T00:57:22.515Z,958.61
2023-11-17T00:58:22.565Z,958.66
2023-11-17T00:59:22.498Z,958.72
2023-11-17T01:00:22.465Z,958.70
2023-11-17T01:01:22.560Z,958.77
2023-11-17T01:02:22.513Z,958.82
2023-11-17T01:03:22.549Z,958.86
2023-11-17T01:04:22.557Z,958.92
2023-11-17T01:05:22.424Z,958.94
2023-11-17T01:06:22.413Z,959.00
2023-11-17T01:07:22.484Z,959.03
2023-11-17T01:08:22.411Z,959.09
2023-11-17T01:09:22.376Z,959.11
2023-11-17T01:10:22.400Z,959.17
2023-11-17T01:11:22.365Z,959.19
2023-11-17T01:12:22.430Z,959.25
2023-11-17T01:13:22.395Z,959.27
2023-11-17T01:14:22.328Z,959.32
2023-11-17T01:15:22.368Z,959.36
2023-11-17T01:16:22.343Z,959.40
2023-11-17T01:17:22.339Z,959.42
2023-11-17T01:18:22.298Z,959.46
2023-11-17T01:19:22.294Z,959.52
2023-11-17T01:20:22.261Z,959.54
2023-11-17T01:21:22.298Z,959.61
2023-11-17T01:22:22.292Z,959.63
2023-11-17T01:23:22.257Z,959.65
2023-11-17T01:24:22.227Z,959.69
2023-11-17T01:25:22.281Z,959.75
2023-11-17T01:26:22.211Z,959.79
2023-11-17T01:27:22.191Z,959.84
2023-11-17T01:28:22.302Z,959.86
2023-11-17T01:29:22.176Z,959.86
2023-11-17T01:30:24.872Z,959.89
2023-11-17T01:31:22.180Z,959.93
2023-11-17T01:32:22.133Z,959.96
2023-11-17T01:33:22.154Z,959.98
2023-11-17T01:34:22.249Z,959.99
2023-11-17T01:35:22.129Z,960.01
2023-11-17T01:36:22.141Z,960.04
2023-11-17T01:37:22.092Z,960.08
2023-11-17T01:38:22.080Z,960.09
2023-11-17T01:39:22.196Z,960.14
2023-11-17T01:40:22.144Z,960.14
2023-11-17T01:41:22.054Z,960.18
2023-11-17T01:42:22.055Z,960.20
2023-11-17T01:43:22.074Z,960.22
2023-11-17T01:44:22.060Z,960.25
2023-11-17T01:45:22.016Z,960.28
2023-11-17T01:46:22.266Z,960.28
2023-11-17T01:47:22.000Z,960.31
2023-11-17T01:48:22.021Z,960.32
2023-11-17T01:49:22.062Z,960.34
2023-11-17T01:50:21.972Z,960.35
2023-11-17T01:51:21.978Z,960.36
2023-11-17T01:52:21.943Z,960.39
2023-11-17T01:53:21.935Z,960.40
2023-11-17T01:54:21.958Z,960.44
2023-11-17T01:55:21.973Z,960.46
2023-11-17T01:56:21.900Z,960.48
2023-11-17T01:57:21.899Z,960.51
2023-11-17T01:58:21.943Z,960.53
2023-11-17T01:59:21.880Z,960.53
2023-11-17T02:00:21.921Z,960.55
2023-11-17T02:01:21.908Z,960.55
2023-11-17T02:02:21.902Z,960.59
2023-11-17T02:03:21.968Z,960.63
2023-11-17T02:04:21.864Z,960.65
2023-11-17T02:05:21.828Z,960.67
2023-11-17T02:06:21.793Z,960.71
2023-11-17T02:07:21.842Z,960.74
2023-11-17T02:08:21.799Z,960.77
2023-11-17T02:09:21.773Z,960.80
2023-11-17T02:10:21.820Z,960.83
2023-11-17T02:11:21.758Z,960.90
2023-11-17T02:12:21.757Z,960.91
2023-11-17T02:13:21.797Z,960.91
2023-11-17T02:14:21.727Z,961.01
2023-11-17T02:15:21.723Z,961.02
2023-11-17T02:16:21.727Z,961.04
2023-11-17T02:17:21.693Z,961.06
2023-11-17T02:18:21.685Z,961.06
2023-11-17T02:19:21.698Z,961.08
2023-11-17T02:20:21.692Z,961.12
2023-11-17T02:21:21.664Z,961.15
2023-11-17T02:22:21.713Z,961.14
2023-11-17T02:23:21.743Z,961.17
2023-11-17T02:24:21.721Z,961.16
2023-11-17T02:25:21.711Z,961.22
2023-11-17T02:26:21.599Z,961.18
2023-11-17T02:27:21.620Z,961.21
2023-11-17T02:28:21.837Z,961.21
2023-11-17T02:29:21.572Z,961.23
2023-11-17T02:30:21.548Z,961.25
2023-11-17T02:31:21.621Z,961.27
2023-11-17T02:32:21.525Z,961.30
2023-11-17T02:33:21.545Z,961.33
2023-11-17T02:34:21.541Z,961.37
2023-11-17T02:35:21.513Z,961.37
2023-11-17T02:36:21.530Z,961.38
2023-11-17T02:37:21.584Z,961.40
2023-11-17T02:38:21.505Z,961.40
2023-11-17T02:39:21.469Z,961.42
2023-11-17T02:40:21.495Z,961.43
2023-11-17T02:41:21.456Z,961.44
2023-11-17T02:42:21.425Z,961.46
2023-11-17T02:43:21.470Z,961.47
2023-11-17T02:44:21.417Z,961.48
2023-11-17T02:45:21.456Z,961.50
2023-11-17T02:46:21.569Z,961.51
2023-11-17T02:47:21.463Z,961.53
2023-11-17T02:48:25.055Z,961.55
2023-11-17T02:49:21.401Z,961.59
2023-11-17T02:50:21.344Z,961.64
2023-11-17T02:51:21.333Z,961.65
2023-11-17T02:52:21.342Z,961.67
2023-11-17T02:53:21.332Z,961.69
2023-11-17T02:54:21.377Z,961.70
2023-11-17T02:55:21.324Z,961.72
2023-11-17T02:56:21.311Z,961.72
2023-11-17T02:57:21.300Z,961.76
2023-11-17T02:58:21.374Z,961.76
2023-11-17T02:59:21.275Z,961.79
2023-11-17T03:00:21.241Z,961.79
2023-11-17T03:01:21.297Z,961.81
2023-11-17T03:02:21.247Z,961.82
2023-11-17T03:03:21.296Z,961.83
2023-11-17T03:04:21.287Z,961.82
2023-11-17T03:05:21.221Z,961.86
2023-11-17T03:06:21.322Z,961.88
2023-11-17T03:07:21.217Z,961.89
2023-11-17T03:08:21.180Z,961.91
2023-11-17T03:09:21.174Z,961.94
2023-11-17T03:10:21.183Z,961.96
2023-11-17T03:11:21.139Z,961.94
2023-11-17T03:12:21.126Z,961.95
2023-11-17T03:13:21.163Z,961.94
2023-11-17T03:14:21.110Z,961.95
2023-11-17T03:15:21.083Z,961.97
2023-11-17T03:16:21.136Z,962.00
2023-11-17T03:17:21.183Z,962.01
2023-11-17T03:18:21.078Z,962.03
2023-11-17T03:19:21.096Z,962.06
2023-11-17T03:20:21.045Z,962.08
2023-11-17T03:21:21.027Z,962.08
2023-11-17T03:22:21.058Z,962.08
2023-11-17T03:23:20.997Z,962.09
2023-11-17T03:24:21.000Z,962.10
2023-11-17T03:25:21.006Z,962.13
2023-11-17T03:26:20.986Z,962.15
2023-11-17T03:27:20.995Z,962.15
2023-11-17T03:28:20.979Z,962.16
2023-11-17T03:29:20.996Z,962.18
2023-11-17T03:30:20.955Z,962.20
2023-11-17T03:31:21.049Z,962.22
2023-11-17T03:32:21.058Z,962.24
2023-11-17T03:33:20.968Z,962.24
2023-11-17T03:34:20.936Z,962.26
2023-11-17T03:35:20.903Z,962.25
2023-11-17T03:36:20.915Z,962.26
2023-11-17T03:37:20.917Z,962.29
2023-11-17T03:38:20.871Z,962.31
2023-11-17T03:39:20.880Z,962.31
2023-11-17T03:40:20.939Z,962.33
2023-11-17T03:41:20.856Z,962.35
2023-11-17T03:42:20.807Z,962.35
2023-11-17T03:43:20.909Z,962.36
2023-11-17T03:44:20.811Z,962.38
2023-11-17T03:45:20.784Z,962.40
2023-11-17T03:46:20.851Z,962.42
2023-11-17T03:47:20.810Z,962.43
2023-11-17T03:48:20.740Z,962.44
2023-11-17T03:49:20.814Z,962.44
2023-11-17T03:50:20.991Z,962.45
2023-11-17T03:51:20.748Z,962.46
2023-11-17T03:52:20.711Z,962.47
2023-11-17T03:53:20.713Z,962.50
2023-11-17T03:54:20.693Z,962.52
2023-11-17T03:55:20.699Z,962.53
2023-11-17T03:56:20.677Z,962.56
2023-11-17T03:57:20.672Z,962.58
2023-11-17T03:58:20.721Z,962.60
2023-11-17T03:59:20.636Z,962.64
2023-11-17T04:00:20.644Z,962.65
2023-11-17T04:01:20.681Z,962.65
2023-11-17T04:02:20.617Z,962.65
2023-11-17T04:03:20.630Z,962.66
2023-11-17T04:04:20.674Z,962.65
2023-11-17T04:05:20.618Z,962.65
2023-11-17T04:06:20.593Z,962.65
2023-11-17T04:07:20.604Z,962.65
2023-11-17T04:08:20.550Z,962.65
2023-11-17T04:09:20.584Z,962.66
2023-11-17T04:10:20.648Z,962.67
2023-11-17T04:11:20.530Z,962.68
2023-11-17T04:12:20.501Z,962.70
2023-11-17T04:13:20.564Z,962.73
2023-11-17T04:14:20.520Z,962.73
2023-11-17T04:15:20.517Z,962.74
2023-11-17T04:16:20.472Z,962.75
2023-11-17T04:17:20.488Z,962.77
2023-11-17T04:18:20.446Z,962.77
2023-11-17T04:19:20.483Z,962.76
2023-11-17T04:20:20.474Z,962.74
2023-11-17T04:21:20.363Z,962.74
2023-11-17T04:22:22.015Z,962.75
2023-11-17T04:23:20.458Z,962.76
2023-11-17T04:24:20.418Z,962.76
2023-11-17T04:25:20.437Z,962.77
2023-11-17T04:26:20.372Z,962.78
2023-11-17T04:27:20.454Z,962.79
2023-11-17T04:28:20.377Z,962.79
2023-11-17T04:29:20.341Z,962.79
2023-11-17T04:30:20.329Z,962.78
2023-11-17T04:31:20.333Z,962.79
2023-11-17T04:32:20.469Z,962.80
2023-11-17T04:33:20.447Z,962.81
2023-11-17T04:34:20.324Z,962.82
2023-11-17T04:35:20.261Z,962.83
2023-11-17T04:36:20.259Z,962.85
2023-11-17T04:37:20.318Z,962.86
2023-11-17T04:38:20.228Z,962.87
2023-11-17T04:39:20.237Z,962.88
2023-11-17T04:40:20.228Z,962.89
2023-11-17T04:41:20.195Z,962.90
2023-11-17T04:42:20.241Z,962.92
2023-11-17T04:43:20.222Z,962.93
2023-11-17T04:44:20.183Z,962.93
2023-11-17T04:45:20.166Z,962.93
2023-11-17T04:46:20.279Z,962.92
2023-11-17T04:47:20.172Z,962.92
2023-11-17T04:48:20.125Z,962.90
2023-11-17T04:49:20.200Z,962.90
2023-11-17T04:50:20.100Z,962.91
2023-11-17T04:51:20.107Z,962.92
2023-11-17T04:52:20.099Z,962.92
2023-11-17T04:53:20.124Z,962.92
2023-11-17T04:54:20.082Z,962.94
2023-11-17T04:55:20.072Z,962.95
2023-11-17T04:56:20.057Z,962.97
2023-11-17T04:57:20.046Z,962.97
2023-11-17T04:58:20.090Z,962.98
2023-11-17T04:59:20.036Z,963.01
2023-11-17T05:00:20.047Z,963.01
2023-11-17T05:01:20.073Z,963.02
2023-11-17T05:02:20.036Z,963.03
2023-11-17T05:03:20.576Z,963.03
2023-11-17T05:04:19.994Z,963.03
2023-11-17T05:05:19.962Z,963.03
2023-11-17T05:06:19.959Z,963.02
2023-11-17T05:07:20.045Z,963.02
2023-11-17T05:08:19.927Z,963.04
2023-11-17T05:09:20.061Z,963.06
2023-11-17T05:10:20.049Z,963.06
2023-11-17T05:11:19.890Z,963.07
2023-11-17T05:12:19.901Z,963.08
2023-11-17T05:13:19.916Z,963.09
2023-11-17T05:14:19.875Z,963.08
2023-11-17T05:15:19.931Z,963.09
2023-11-17T05:16:19.893Z,963.09
2023-11-17T05:17:19.900Z,963.08
2023-11-17T05:18:19.996Z,963.08
2023-11-17T05:19:19.900Z,963.08
2023-11-17T05:20:19.865Z,963.09
2023-11-17T05:21:19.891Z,963.10
2023-11-17T05:22:21.869Z,963.11
2023-11-17T05:23:19.811Z,963.12
2023-11-17T05:24:19.779Z,963.14
2023-11-17T05:25:19.788Z,963.15
2023-11-17T05:26:19.741Z,963.15
2023-11-17T05:27:19.741Z,963.15
2023-11-17T05:28:19.781Z,963.16
2023-11-17T05:29:19.736Z,963.16
2023-11-17T05:30:19.878Z,963.18
2023-11-17T05:31:19.771Z,963.20
2023-11-17T05:32:19.714Z,963.20
2023-11-17T05:33:20.181Z,963.19
2023-11-17T05:34:19.684Z,963.20
2023-11-17T05:35:19.653Z,963.23
2023-11-17T05:36:19.625Z,963.25
2023-11-17T05:37:19.654Z,963.28
2023-11-17T05:38:19.624Z,963.29
2023-11-17T05:39:19.600Z,963.31
2023-11-17T05:40:19.676Z,963.30
2023-11-17T05:41:19.581Z,963.30
2023-11-17T05:42:19.570Z,963.29
2023-11-17T05:43:19.634Z,963.29
2023-11-17T05:44:19.546Z,963.30
2023-11-17T05:45:19.494Z,963.31
2023-11-17T05:46:19.556Z,963.32
2023-11-17T05:47:19.601Z,963.34
2023-11-17T05:48:19.515Z,963.35
2023-11-17T05:49:19.520Z,963.38
2023-11-17T05:50:19.495Z,963.40
2023-11-17T05:51:19.476Z,963.43
2023-11-17T05:52:19.493Z,963.44
2023-11-17T05:53:19.512Z,963.44
2023-11-17T05:54:19.438Z,963.45
2023-11-17T05:55:19.470Z,963.45
2023-11-17T05:56:19.404Z,963.47
2023-11-17T05:57:19.493Z,963.48
2023-11-17T05:58:19.448Z,963.48
2023-11-17T05:59:19.423Z,963.49
2023-11-17T06:00:19.534Z,963.50
2023-11-17T06:01:19.435Z,963.50
2023-11-17T06:02:19.401Z,963.50
2023-11-17T06:03:19.449Z,963.50
2023-11-17T06:04:19.416Z,963.49
2023-11-17T06:05:19.350Z,963.51
2023-11-17T06:06:19.329Z,963.52
2023-11-17T06:07:19.351Z,963.52
2023-11-17T06:08:19.297Z,963.51
2023-11-17T06:09:19.295Z,963.50
2023-11-17T06:10:19.276Z,963.51
2023-11-17T06:11:19.262Z,963.51
2023-11-17T06:12:19.195Z,963.52
2023-11-17T06:13:19.308Z,963.54
2023-11-17T06:14:19.173Z,963.54
2023-11-17T06:15:19.180Z,963.53
2023-11-17T06:16:21.948Z,963.53
2023-11-17T06:17:19.191Z,963.55
2023-11-17T06:18:19.159Z,963.56
2023-11-17T06:19:19.157Z,963.56
2023-11-17T06:20:19.143Z,963.55
2023-11-17T06:21:19.109Z,963.55
2023-11-17T06:22:19.134Z,963.56
2023-11-17T06:23:19.084Z,963.56
2023-11-17T06:24:19.074Z,963.57
2023-11-17T06:25:19.185Z,963.58
2023-11-17T06:26:19.057Z,963.58
2023-11-17T06:27:19.047Z,963.59
2023-11-17T06:28:19.060Z,963.60
2023-11-17T06:29:19.025Z,963.63
2023-11-17T06:30:19.059Z,963.66
2023-11-17T06:31:19.024Z,963.67
2023-11-17T06:32:19.066Z,963.68
2023-11-17T06:33:19.058Z,963.69
2023-11-17T06:34:19.004Z,963.69
2023-11-17T06:35:18.976Z,963.70
2023-11-17T06:36:18.949Z,963.69
2023-11-17T06:37:19.001Z,963.68
2023-11-17T06:38:19.008Z,963.69
2023-11-17T06:39:18.918Z,963.68
2023-11-17T06:40:18.950Z,963.70
2023-11-17T06:41:18.902Z,963.72
2023-11-17T06:42:18.893Z,963.73
2023-11-17T06:43:18.981Z,963.75
2023-11-17T06:44:18.890Z,963.76
2023-11-17T06:45:18.901Z,963.77
2023-11-17T06:46:18.966Z,963.78
2023-11-17T06:47:19.009Z,963.80
2023-11-17T06:48:18.858Z,963.81
2023-11-17T06:49:18.879Z,963.81
2023-11-17T06:50:18.864Z,963.83
2023-11-17T06:51:18.809Z,963.82
2023-11-17T06:52:18.873Z,963.81
2023-11-17T06:53:18.826Z,963.82
2023-11-17T06:54:18.764Z,963.82
2023-11-17T06:55:18.769Z,963.82
2023-11-17T06:56:18.758Z,963.83
2023-11-17T06:57:18.741Z,963.83
2023-11-17T06:58:18.930Z,963.84
2023-11-17T06:59:18.705Z,963.86
2023-11-17T07:00:18.723Z,963.87
2023-11-17T07:01:18.786Z,963.89
2023-11-17T07:02:18.769Z,963.92
2023-11-17T07:03:18.774Z,963.93
2023-11-17T07:04:18.744Z,963.95
2023-11-17T07:05:18.673Z,963.96
2023-11-17T07:06:18.650Z,963.96
2023-11-17T07:07:18.692Z,963.96
2023-11-17T07:08:18.642Z,963.96
2023-11-17T07:09:18.677Z,963.97
2023-11-17T07:10:18.673Z,963.99
2023-11-17T07:11:18.607Z,963.99
2023-11-17T07:12:18.629Z,964.01
2023-11-17T07:13:18.651Z,964.03
2023-11-17T07:14:18.676Z,964.05
2023-11-17T07:15:18.626Z,964.08
2023-11-17T07:16:18.615Z,964.11
2023-11-17T07:17:18.587Z,964.12
2023-11-17T07:18:18.607Z,964.13
2023-11-17T07:19:18.982Z,964.13
2023-11-17T07:20:18.509Z,964.14
2023-11-17T07:21:18.524Z,964.14
2023-11-17T07:22:18.513Z,964.13
2023-11-17T07:23:18.482Z,964.15
2023-11-17T07:24:18.470Z,964.16
2023-11-17T07:25:18.548Z,964.18
2023-11-17T07:26:18.538Z,964.20
2023-11-17T07:27:18.550Z,964.22
2023-11-17T07:28:18.590Z,964.24
2023-11-17T07:29:18.580Z,964.23
2023-11-17T07:30:18.413Z,964.24
2023-11-17T07:31:18.484Z,964.25
2023-11-17T07:32:18.382Z,964.27
2023-11-17T07:33:18.394Z,964.29
2023-11-17T07:34:18.797Z,964.32
2023-11-17T07:35:18.389Z,964.32
2023-11-17T07:36:19.979Z,964.34
2023-11-17T07:37:18.359Z,964.34
2023-11-17T07:38:18.345Z,964.34
2023-11-17T07:39:18.328Z,964.35
2023-11-17T07:40:18.364Z,964.36
2023-11-17T07:41:18.326Z,964.35
2023-11-17T07:42:18.288Z,964.37
2023-11-17T07:43:18.343Z,964.39
2023-11-17T07:44:18.261Z,964.41
2023-11-17T07:45:18.242Z,964.43
2023-11-17T07:46:18.273Z,964.46
2023-11-17T07:47:18.272Z,964.48
2023-11-17T07:48:18.221Z,964.50
2023-11-17T07:49:20.590Z,964.50
2023-11-17T07:50:18.194Z,964.48
2023-11-17T07:51:19.120Z,964.48
2023-11-17T07:52:18.287Z,964.48
2023-11-17T07:53:18.211Z,964.48
2023-11-17T07:54:19.106Z,964.50
2023-11-17T07:55:18.172Z,964.50
2023-11-17T07:56:18.176Z,964.51
2023-11-17T07:57:18.161Z,964.53
2023-11-17T07:58:18.151Z,964.54
2023-11-17T07:59:18.112Z,964.55
2023-11-17T08:00:18.148Z,964.58
2023-11-17T08:01:18.120Z,964.59
2023-11-17T08:02:18.124Z,964.61
2023-11-17T08:03:18.192Z,964.62
2023-11-17T08:04:19.182Z,964.62
2023-11-17T08:05:18.080Z,964.64
2023-11-17T08:06:18.049Z,964.66
2023-11-17T08:07:18.074Z,964.68
2023-11-17T08:08:18.085Z,964.71
2023-11-17T08:09:18.286Z,964.73
2023-11-17T08:10:18.026Z,964.75
2023-11-17T08:11:17.998Z,964.77
2023-11-17T08:12:18.019Z,964.78
2023-11-17T08:13:18.060Z,964.79
2023-11-17T08:14:17.945Z,964.81
2023-11-17T08:15:17.952Z,964.80
2023-11-17T08:16:18.050Z,964.82
2023-11-17T08:17:17.958Z,964.83
2023-11-17T08:18:17.959Z,964.84
2023-11-17T08:19:24.778Z,964.85
2023-11-17T08:20:17.957Z,964.84
2023-11-17T08:21:17.875Z,964.81
2023-11-17T08:22:17.935Z,964.81
2023-11-17T08:23:17.880Z,964.80
2023-11-17T08:24:17.850Z,964.82
2023-11-17T08:25:17.865Z,964.82
2023-11-17T08:26:17.841Z,964.83
2023-11-17T08:27:17.875Z,964.85
2023-11-17T08:28:18.197Z,964.84
2023-11-17T08:29:19.910Z,964.84
2023-11-17T08:30:17.806Z,964.84
2023-11-17T08:31:17.874Z,964.84
2023-11-17T08:32:17.848Z,964.86
2023-11-17T08:33:17.768Z,964.87
2023-11-17T08:34:17.786Z,964.88
2023-11-17T08:35:17.767Z,964.89
2023-11-17T08:36:17.787Z,964.90
2023-11-17T08:37:17.744Z,964.91
2023-11-17T08:38:17.718Z,964.93
2023-11-17T08:39:17.738Z,964.95
2023-11-17T08:40:17.716Z,964.97
2023-11-17T08:41:17.686Z,964.98
2023-11-17T08:42:17.716Z,964.99
2023-11-17T08:43:17.692Z,965.00
2023-11-17T08:44:17.653Z,965.01
2023-11-17T08:45:17.676Z,965.01
2023-11-17T08:46:17.765Z,965.02
2023-11-17T08:47:17.611Z,965.03
2023-11-17T08:48:17.610Z,965.03
2023-11-17T08:49:17.627Z,965.03
2023-11-17T08:50:17.632Z,965.05
2023-11-17T08:51:17.577Z,965.06
2023-11-17T08:52:17.636Z,965.06
2023-11-17T08:53:17.566Z,965.09
2023-11-17T08:54:17.577Z,965.08
2023-11-17T08:55:17.559Z,965.10
2023-11-17T08:56:17.553Z,965.09
2023-11-17T08:57:17.535Z,965.09
2023-11-17T08:58:17.519Z,965.09
2023-11-17T08:59:17.918Z,965.09
2023-11-17T09:00:17.505Z,965.09
2023-11-17T09:01:17.521Z,965.09
2023-11-17T09:02:17.534Z,965.08
2023-11-17T09:03:17.515Z,965.07
2023-11-17T09:04:17.576Z,965.06
2023-11-17T09:05:17.426Z,965.07
2023-11-17T09:06:17.491Z,965.06
2023-11-17T09:07:17.443Z,965.06
2023-11-17T09:08:17.426Z,965.07
2023-11-17T09:09:27.975Z,965.08
2023-11-17T09:10:17.411Z,965.08
2023-11-17T09:11:17.386Z,965.08
2023-11-17T09:12:17.358Z,965.08
2023-11-17T09:13:17.401Z,965.07
2023-11-17T09:14:17.382Z,965.07
2023-11-17T09:15:17.328Z,965.07
2023-11-17T09:16:17.425Z,965.06
2023-11-17T09:17:17.415Z,965.07
2023-11-17T09:18:17.342Z,965.08
2023-11-17T09:19:17.332Z,965.09
2023-11-17T09:20:17.304Z,965.10
2023-11-17T09:21:17.274Z,965.10
2023-11-17T09:22:17.292Z,965.11
2023-11-17T09:23:17.261Z,965.12
2023-11-17T09:24:17.230Z,965.14
2023-11-17T09:25:17.393Z,965.17
2023-11-17T09:26:17.225Z,965.18
2023-11-17T09:27:17.269Z,965.23
2023-11-17T09:28:17.291Z,965.23
2023-11-17T09:29:17.183Z,965.23
2023-11-17T09:30:17.199Z,965.22
2023-11-17T09:31:17.227Z,965.21
2023-11-17T09:32:17.174Z,965.22
2023-11-17T09:33:17.233Z,965.21
2023-11-17T09:34:17.237Z,965.22
2023-11-17T09:35:17.260Z,965.21
2023-11-17T09:36:17.182Z,965.21
2023-11-17T09:37:17.126Z,965.23
2023-11-17T09:38:22.796Z,965.24
2023-11-17T09:39:17.124Z,965.24
2023-11-17T09:40:17.088Z,965.24
2023-11-17T09:41:17.079Z,965.24
2023-11-17T09:42:17.058Z,965.27
2023-11-17T09:43:17.058Z,965.28
2023-11-17T09:44:17.020Z,965.27
2023-11-17T09:45:17.069Z,965.27
2023-11-17T09:46:17.104Z,965.27
2023-11-17T09:47:17.006Z,965.25
2023-11-17T09:48:17.046Z,965.26
2023-11-17T09:49:16.998Z,965.26
2023-11-17T09:50:16.999Z,965.25
2023-11-17T09:51:16.978Z,965.26
2023-11-17T09:52:16.956Z,965.26
2023-11-17T09:53:16.996Z,965.27
2023-11-17T09:54:16.929Z,965.26
2023-11-17T09:55:16.923Z,965.27
2023-11-17T09:56:16.956Z,965.28
2023-11-17T09:57:16.938Z,965.29
2023-11-17T09:58:17.094Z,965.28
2023-11-17T09:59:16.869Z,965.30
2023-11-17T10:00:16.869Z,965.30
2023-11-17T10:01:16.946Z,965.30
2023-11-17T10:02:17.041Z,965.30
2023-11-17T10:03:16.933Z,965.31
2023-11-17T10:04:17.127Z,965.30
2023-11-17T10:05:16.866Z,965.31
2023-11-17T10:06:16.813Z,965.32
2023-11-17T10:07:16.855Z,965.30
2023-11-17T10:08:16.804Z,965.30
2023-11-17T10:09:16.774Z,965.28
2023-11-17T10:10:19.335Z,965.30
2023-11-17T10:11:16.740Z,965.31
2023-11-17T10:12:16.712Z,965.32
2023-11-17T10:13:16.869Z,965.33
2023-11-17T10:14:16.745Z,965.33
2023-11-17T10:15:16.703Z,965.35
2023-11-17T10:16:16.739Z,965.38
2023-11-17T10:17:16.765Z,965.39
2023-11-17T10:18:16.676Z,965.44
2023-11-17T10:19:16.819Z,965.45
2023-11-17T10:20:16.684Z,965.47
2023-11-17T10:21:16.678Z,965.46
2023-11-17T10:22:16.773Z,965.45
2023-11-17T10:23:16.644Z,965.47
2023-11-17T10:24:16.654Z,965.45
2023-11-17T10:25:16.605Z,965.47
2023-11-17T10:26:16.632Z,965.49
2023-11-17T10:27:16.603Z,965.50
2023-11-17T10:28:16.588Z,965.50
2023-11-17T10:29:16.552Z,965.48
2023-11-17T10:30:16.590Z,965.49
2023-11-17T10:31:16.542Z,965.49
2023-11-17T10:32:30.767Z,965.51
2023-11-17T10:33:16.709Z,965.51
2023-11-17T10:34:16.604Z,965.52
2023-11-17T10:35:16.522Z,965.53
2023-11-17T10:36:16.548Z,965.54
2023-11-17T10:37:16.530Z,965.53
2023-11-17T10:38:16.479Z,965.53
2023-11-17T10:39:16.463Z,965.53
2023-11-17T10:40:16.543Z,965.51
2023-11-17T10:41:16.458Z,965.48
2023-11-17T10:42:16.421Z,965.47
2023-11-17T10:43:16.454Z,965.45
2023-11-17T10:44:16.379Z,965.46
2023-11-17T10:45:17.308Z,965.46
2023-11-17T10:46:16.438Z,965.46
2023-11-17T10:47:16.558Z,965.44
2023-11-17T10:48:16.342Z,965.42
2023-11-17T10:49:16.423Z,965.42
2023-11-17T10:50:16.320Z,965.42
2023-11-17T10:51:16.331Z,965.44
2023-11-17T10:52:16.371Z,965.43
2023-11-17T10:53:16.318Z,965.43
2023-11-17T10:54:16.306Z,965.42
2023-11-17T10:55:17.185Z,965.42
2023-11-17T10:56:16.366Z,965.42
2023-11-17T10:57:16.254Z,965.41
2023-11-17T10:58:16.333Z,965.41
2023-11-17T10:59:16.256Z,965.41
2023-11-17T11:00:16.225Z,965.41
2023-11-17T11:01:16.902Z,965.40
2023-11-17T11:02:16.324Z,965.39
2023-11-17T11:03:16.268Z,965.39
2023-11-17T11:04:16.762Z,965.38
2023-11-17T11:05:16.206Z,965.37
2023-11-17T11:06:16.171Z,965.36
2023-11-17T11:07:16.509Z,965.36
2023-11-17T11:08:16.127Z,965.35
2023-11-17T11:09:16.172Z,965.34
2023-11-17T11:10:16.339Z,965.32
2023-11-17T11:11:16.131Z,965.33
2023-11-17T11:12:16.137Z,965.32
2023-11-17T11:13:16.540Z,965.32
2023-11-17T11:14:16.108Z,965.30
2023-11-17T11:15:16.111Z,965.30
2023-11-17T11:16:16.113Z,965.30
2023-11-17T11:17:16.088Z,965.30
2023-11-17T11:18:16.064Z,965.33
2023-11-17T11:19:23.746Z,965.32
2023-11-17T11:20:23.049Z,965.35
2023-11-17T11:21:16.014Z,965.36
2023-11-17T11:22:16.026Z,965.37
2023-11-17T11:23:15.965Z,965.37
2023-11-17T11:24:27.432Z,965.39
2023-11-17T11:25:16.014Z,965.39
2023-11-17T11:26:15.926Z,965.40
2023-11-17T11:27:16.128Z,965.43
2023-11-17T11:28:15.983Z,965.43
2023-11-17T11:29:15.954Z,965.45
2023-11-17T11:30:15.895Z,965.46
2023-11-17T11:31:16.036Z,965.46
2023-11-17T11:32:15.875Z,965.43
2023-11-17T11:33:15.892Z,965.45
2023-11-17T11:34:15.881Z,965.42
2023-11-17T11:35:15.874Z,965.43
2023-11-17T11:36:15.825Z,965.43
2023-11-17T11:37:15.866Z,965.43
2023-11-17T11:38:15.817Z,965.46
2023-11-17T11:39:15.837Z,965.47
2023-11-17T11:40:15.910Z,965.47
2023-11-17T11:41:15.784Z,965.47
2023-11-17T11:42:15.804Z,965.47
2023-11-17T11:43:15.804Z,965.48
2023-11-17T11:44:15.739Z,965.47
2023-11-17T11:45:15.745Z,965.46
2023-11-17T11:46:15.932Z,965.45
2023-11-17T11:47:15.800Z,965.46
2023-11-17T11:48:15.753Z,965.47
2023-11-17T11:49:15.736Z,965.51
2023-11-17T11:50:15.678Z,965.51
2023-11-17T11:51:15.656Z,965.51
2023-11-17T11:52:15.685Z,965.50
2023-11-17T11:53:15.692Z,965.50
2023-11-17T11:54:15.634Z,965.50
2023-11-17T11:55:15.654Z,965.49
2023-11-17T11:56:15.612Z,965.49
2023-11-17T11:57:15.648Z,965.49
2023-11-17T11:58:15.623Z,965.51
2023-11-17T11:59:15.589Z,965.53
2023-11-17T12:00:15.990Z,965.50
2023-11-17T12:01:15.606Z,965.47
2023-11-17T12:02:15.576Z,965.46
2023-11-17T12:03:15.836Z,965.45
2023-11-17T12:04:15.617Z,965.44
2023-11-17T12:05:15.583Z,965.41
2023-11-17T12:06:15.621Z,965.40
2023-11-17T12:07:15.573Z,965.40
2023-11-17T12:08:15.487Z,965.41
2023-11-17T12:09:15.497Z,965.43
2023-11-17T12:10:15.558Z,965.41
2023-11-17T12:11:15.478Z,965.42
2023-11-17T12:12:15.427Z,965.41
2023-11-17T12:13:15.460Z,965.41
2023-11-17T12:14:15.487Z,965.42
2023-11-17T12:15:15.398Z,965.43
2023-11-17T12:16:15.754Z,965.43
2023-11-17T12:17:15.463Z,965.42
2023-11-17T12:18:15.391Z,965.42
2023-11-17T12:19:15.403Z,965.41
2023-11-17T12:20:15.359Z,965.42
2023-11-17T12:21:15.376Z,965.44
2023-11-17T12:22:15.402Z,965.44
2023-11-17T12:23:15.319Z,965.45
2023-11-17T12:24:15.305Z,965.46
2023-11-17T12:25:15.430Z,965.45
2023-11-17T12:26:15.302Z,965.48
2023-11-17T12:27:15.287Z,965.48
2023-11-17T12:28:15.346Z,965.48